sensor_id;sensor_type;location;lat;lon;timestamp;temperature;humidity
21495;DHT22;10909;53.590;10.054;2023-04-15T00:00:10;12.40;73.60
21495;DHT22;10909;53.590;10.054;2023-04-15T00:02:36;12.40;73.60
21495;DHT22;10909;53.590;10.054;2023-04-15T00:05:03;12.40;73.80
21495;DHT22;10909;53.590;10.054;2023-04-15T00:07:29;12.40;73.90
21495;DHT22;10909;53.590;10.054;2023-04-15T00:09:56;12.40;74.10
21495;DHT22;10909;53.590;10.054;2023-04-15T00:12:23;12.40;74.20
21495;DHT22;10909;53.590;10.054;2023-04-15T00:14:49;12.40;74.30
21495;DHT22;10909;53.590;10.054;2023-04-15T00:17:16;12.40;74.40
21495;DHT22;10909;53.590;10.054;2023-04-15T00:19:42;12.40;74.30
21495;DHT22;10909;53.590;10.054;2023-04-15T00:22:11;12.30;74.10
21495;DHT22;10909;53.590;10.054;2023-04-15T00:24:38;12.40;73.70
21495;DHT22;10909;53.590;10.054;2023-04-15T00:27:03;12.30;74.10
21495;DHT22;10909;53.590;10.054;2023-04-15T00:29:30;12.30;74.20
21495;DHT22;10909;53.590;10.054;2023-04-15T00:31:56;12.30;74.50
21495;DHT22;10909;53.590;10.054;2023-04-15T00:34:22;12.20;74.70
21495;DHT22;10909;53.590;10.054;2023-04-15T00:36:52;12.20;74.80
21495;DHT22;10909;53.590;10.054;2023-04-15T00:39:18;12.20;75.00
21495;DHT22;10909;53.590;10.054;2023-04-15T00:41:44;12.20;75.00
21495;DHT22;10909;53.590;10.054;2023-04-15T00:44:10;12.20;75.10
21495;DHT22;10909;53.590;10.054;2023-04-15T00:46:37;12.20;75.20
21495;DHT22;10909;53.590;10.054;2023-04-15T00:49:04;12.20;75.30
21495;DHT22;10909;53.590;10.054;2023-04-15T00:51:30;12.20;75.40
21495;DHT22;10909;53.590;10.054;2023-04-15T00:53:58;12.20;75.40
21495;DHT22;10909;53.590;10.054;2023-04-15T00:56:24;12.20;75.40
21495;DHT22;10909;53.590;10.054;2023-04-15T00:58:51;12.30;75.60
21495;DHT22;10909;53.590;10.054;2023-04-15T01:01:21;12.20;75.50
21495;DHT22;10909;53.590;10.054;2023-04-15T01:03:48;12.20;75.50
21495;DHT22;10909;53.590;10.054;2023-04-15T01:06:15;12.20;75.50
21495;DHT22;10909;53.590;10.054;2023-04-15T01:08:41;12.20;75.50
21495;DHT22;10909;53.590;10.054;2023-04-15T01:11:06;12.20;75.70
21495;DHT22;10909;53.590;10.054;2023-04-15T01:13:33;12.20;75.80
21495;DHT22;10909;53.590;10.054;2023-04-15T01:15:58;12.20;75.90
21495;DHT22;10909;53.590;10.054;2023-04-15T01:18:25;12.20;76.00
21495;DHT22;10909;53.590;10.054;2023-04-15T01:20:51;12.20;76.00
21495;DHT22;10909;53.590;10.054;2023-04-15T01:23:17;12.20;76.10
21495;DHT22;10909;53.590;10.054;2023-04-15T01:25:43;12.20;76.00
21495;DHT22;10909;53.590;10.054;2023-04-15T01:28:10;12.20;76.00
21495;DHT22;10909;53.590;10.054;2023-04-15T01:30:35;12.20;76.00
21495;DHT22;10909;53.590;10.054;2023-04-15T01:33:01;12.10;76.10
21495;DHT22;10909;53.590;10.054;2023-04-15T01:35:27;12.10;76.30
21495;DHT22;10909;53.590;10.054;2023-04-15T01:37:54;12.10;76.40
21495;DHT22;10909;53.590;10.054;2023-04-15T01:40:22;12.10;76.40
21495;DHT22;10909;53.590;10.054;2023-04-15T01:42:48;12.10;76.50
21495;DHT22;10909;53.590;10.054;2023-04-15T01:45:13;12.10;76.50
21495;DHT22;10909;53.590;10.054;2023-04-15T01:47:39;12.10;76.60
21495;DHT22;10909;53.590;10.054;2023-04-15T01:50:05;12.10;76.60
21495;DHT22;10909;53.590;10.054;2023-04-15T01:52:31;12.10;76.70
21495;DHT22;10909;53.590;10.054;2023-04-15T01:54:57;12.10;76.80
21495;DHT22;10909;53.590;10.054;2023-04-15T01:57:23;12.10;77.00
21495;DHT22;10909;53.590;10.054;2023-04-15T01:59:48;12.10;77.00
21495;DHT22;10909;53.590;10.054;2023-04-15T02:02:14;12.10;77.00
21495;DHT22;10909;53.590;10.054;2023-04-15T02:04:40;12.10;77.10
21495;DHT22;10909;53.590;10.054;2023-04-15T02:07:06;12.10;77.10
21495;DHT22;10909;53.590;10.054;2023-04-15T02:09:31;12.10;77.20
21495;DHT22;10909;53.590;10.054;2023-04-15T02:11:57;12.10;77.20
21495;DHT22;10909;53.590;10.054;2023-04-15T02:14:23;12.10;77.20
21495;DHT22;10909;53.590;10.054;2023-04-15T02:16:49;12.10;77.20
21495;DHT22;10909;53.590;10.054;2023-04-15T02:19:14;12.10;77.30
21495;DHT22;10909;53.590;10.054;2023-04-15T02:21:40;12.10;77.30
21495;DHT22;10909;53.590;10.054;2023-04-15T02:24:06;12.10;77.40
21495;DHT22;10909;53.590;10.054;2023-04-15T02:26:31;12.10;77.50
21495;DHT22;10909;53.590;10.054;2023-04-15T02:28:58;12.00;77.60
21495;DHT22;10909;53.590;10.054;2023-04-15T02:31:24;12.00;77.60
21495;DHT22;10909;53.590;10.054;2023-04-15T02:33:50;12.10;78.60
21495;DHT22;10909;53.590;10.054;2023-04-15T02:36:16;12.10;77.80
21495;DHT22;10909;53.590;10.054;2023-04-15T02:38:42;12.10;77.90
21495;DHT22;10909;53.590;10.054;2023-04-15T02:41:08;12.10;78.00
21495;DHT22;10909;53.590;10.054;2023-04-15T02:43:34;12.10;77.90
21495;DHT22;10909;53.590;10.054;2023-04-15T02:46:00;12.10;77.90
21495;DHT22;10909;53.590;10.054;2023-04-15T02:48:27;12.10;77.90
21495;DHT22;10909;53.590;10.054;2023-04-15T02:50:52;12.10;77.90
21495;DHT22;10909;53.590;10.054;2023-04-15T02:53:18;12.10;78.00
21495;DHT22;10909;53.590;10.054;2023-04-15T02:55:45;12.10;78.10
21495;DHT22;10909;53.590;10.054;2023-04-15T02:58:12;12.10;78.10
21495;DHT22;10909;53.590;10.054;2023-04-15T03:00:37;12.10;79.00
21495;DHT22;10909;53.590;10.054;2023-04-15T03:03:04;12.10;78.30
21495;DHT22;10909;53.590;10.054;2023-04-15T03:05:30;12.10;78.30
21495;DHT22;10909;53.590;10.054;2023-04-15T03:07:56;12.10;78.30
21495;DHT22;10909;53.590;10.054;2023-04-15T03:10:22;12.10;78.30
21495;DHT22;10909;53.590;10.054;2023-04-15T03:12:48;12.10;78.30
21495;DHT22;10909;53.590;10.054;2023-04-15T03:15:14;12.20;78.50
21495;DHT22;10909;53.590;10.054;2023-04-15T03:17:39;12.20;78.50
21495;DHT22;10909;53.590;10.054;2023-04-15T03:20:06;12.10;78.40
21495;DHT22;10909;53.590;10.054;2023-04-15T03:22:32;12.10;78.50
21495;DHT22;10909;53.590;10.054;2023-04-15T03:24:57;12.10;78.50
21495;DHT22;10909;53.590;10.054;2023-04-15T03:27:24;12.20;78.60
21495;DHT22;10909;53.590;10.054;2023-04-15T03:29:50;12.10;78.50
21495;DHT22;10909;53.590;10.054;2023-04-15T03:32:16;12.10;78.50
21495;DHT22;10909;53.590;10.054;2023-04-15T03:34:42;12.10;78.60
21495;DHT22;10909;53.590;10.054;2023-04-15T03:37:18;12.10;78.70
21495;DHT22;10909;53.590;10.054;2023-04-15T03:39:44;12.10;78.80
21495;DHT22;10909;53.590;10.054;2023-04-15T03:42:10;12.10;78.90
21495;DHT22;10909;53.590;10.054;2023-04-15T03:44:36;12.10;78.90
21495;DHT22;10909;53.590;10.054;2023-04-15T03:47:02;12.20;78.90
21495;DHT22;10909;53.590;10.054;2023-04-15T03:49:31;12.10;79.00
21495;DHT22;10909;53.590;10.054;2023-04-15T03:51:57;12.20;79.10
21495;DHT22;10909;53.590;10.054;2023-04-15T03:54:24;12.10;79.10
21495;DHT22;10909;53.590;10.054;2023-04-15T03:56:49;12.10;79.00
21495;DHT22;10909;53.590;10.054;2023-04-15T03:59:15;12.10;78.90
21495;DHT22;10909;53.590;10.054;2023-04-15T04:01:41;12.10;78.90
21495;DHT22;10909;53.590;10.054;2023-04-15T04:04:06;12.10;78.90
21495;DHT22;10909;53.590;10.054;2023-04-15T04:06:32;12.10;79.10
21495;DHT22;10909;53.590;10.054;2023-04-15T04:08:58;12.10;79.20
21495;DHT22;10909;53.590;10.054;2023-04-15T04:11:24;12.10;79.30
21495;DHT22;10909;53.590;10.054;2023-04-15T04:13:49;12.10;79.40
21495;DHT22;10909;53.590;10.054;2023-04-15T04:16:15;12.10;79.40
21495;DHT22;10909;53.590;10.054;2023-04-15T04:18:41;12.10;79.30
21495;DHT22;10909;53.590;10.054;2023-04-15T04:21:07;12.10;79.40
21495;DHT22;10909;53.590;10.054;2023-04-15T04:23:33;12.10;79.40
21495;DHT22;10909;53.590;10.054;2023-04-15T04:25:58;12.10;79.60
21495;DHT22;10909;53.590;10.054;2023-04-15T04:28:24;12.10;79.60
21495;DHT22;10909;53.590;10.054;2023-04-15T04:30:50;12.10;79.50
21495;DHT22;10909;53.590;10.054;2023-04-15T04:33:16;12.10;79.60
21495;DHT22;10909;53.590;10.054;2023-04-15T04:35:42;12.10;79.60
21495;DHT22;10909;53.590;10.054;2023-04-15T04:38:08;12.10;79.70
21495;DHT22;10909;53.590;10.054;2023-04-15T04:40:35;12.10;79.70
21495;DHT22;10909;53.590;10.054;2023-04-15T04:43:02;12.10;79.80
21495;DHT22;10909;53.590;10.054;2023-04-15T04:45:27;12.10;79.90
21495;DHT22;10909;53.590;10.054;2023-04-15T04:47:54;12.10;79.80
21495;DHT22;10909;53.590;10.054;2023-04-15T04:50:19;12.10;79.90
21495;DHT22;10909;53.590;10.054;2023-04-15T04:52:45;12.00;79.80
21495;DHT22;10909;53.590;10.054;2023-04-15T04:55:11;12.10;80.00
21495;DHT22;10909;53.590;10.054;2023-04-15T04:57:36;12.00;80.10
21495;DHT22;10909;53.590;10.054;2023-04-15T05:00:05;12.00;80.80
21495;DHT22;10909;53.590;10.054;2023-04-15T05:02:32;12.10;80.20
21495;DHT22;10909;53.590;10.054;2023-04-15T05:04:58;12.10;80.30
21495;DHT22;10909;53.590;10.054;2023-04-15T05:07:24;12.10;80.40
21495;DHT22;10909;53.590;10.054;2023-04-15T05:09:50;12.10;80.50
21495;DHT22;10909;53.590;10.054;2023-04-15T05:12:15;12.10;80.50
21495;DHT22;10909;53.590;10.054;2023-04-15T05:14:42;12.10;80.50
21495;DHT22;10909;53.590;10.054;2023-04-15T05:17:08;12.10;80.50
21495;DHT22;10909;53.590;10.054;2023-04-15T05:19:34;12.10;80.60
21495;DHT22;10909;53.590;10.054;2023-04-15T05:22:07;12.10;80.60
21495;DHT22;10909;53.590;10.054;2023-04-15T05:24:33;12.10;80.70
21495;DHT22;10909;53.590;10.054;2023-04-15T05:26:59;12.10;80.70
21495;DHT22;10909;53.590;10.054;2023-04-15T05:29:26;12.10;80.80
21495;DHT22;10909;53.590;10.054;2023-04-15T05:31:52;12.20;81.00
21495;DHT22;10909;53.590;10.054;2023-04-15T05:34:17;12.10;80.90
21495;DHT22;10909;53.590;10.054;2023-04-15T05:36:43;12.10;80.90
21495;DHT22;10909;53.590;10.054;2023-04-15T05:39:10;12.10;80.90
21495;DHT22;10909;53.590;10.054;2023-04-15T05:41:36;12.20;81.00
21495;DHT22;10909;53.590;10.054;2023-04-15T05:44:02;12.20;81.00
21495;DHT22;10909;53.590;10.054;2023-04-15T05:46:28;12.20;81.10
21495;DHT22;10909;53.590;10.054;2023-04-15T05:48:54;12.20;81.10
21495;DHT22;10909;53.590;10.054;2023-04-15T05:51:20;12.20;81.00
21495;DHT22;10909;53.590;10.054;2023-04-15T05:53:45;12.20;81.00
21495;DHT22;10909;53.590;10.054;2023-04-15T05:56:11;12.20;81.00
21495;DHT22;10909;53.590;10.054;2023-04-15T05:58:37;12.20;81.10
21495;DHT22;10909;53.590;10.054;2023-04-15T06:01:03;12.20;81.10
21495;DHT22;10909;53.590;10.054;2023-04-15T06:03:32;12.20;82.00
21495;DHT22;10909;53.590;10.054;2023-04-15T06:05:58;12.10;81.30
21495;DHT22;10909;53.590;10.054;2023-04-15T06:08:25;12.20;81.30
21495;DHT22;10909;53.590;10.054;2023-04-15T06:10:52;12.20;81.40
21495;DHT22;10909;53.590;10.054;2023-04-15T06:13:18;12.20;81.40
21495;DHT22;10909;53.590;10.054;2023-04-15T06:15:45;12.20;81.50
21495;DHT22;10909;53.590;10.054;2023-04-15T06:18:10;12.20;81.40
21495;DHT22;10909;53.590;10.054;2023-04-15T06:20:36;12.20;81.40
21495;DHT22;10909;53.590;10.054;2023-04-15T06:23:02;12.20;81.40
21495;DHT22;10909;53.590;10.054;2023-04-15T06:25:27;12.20;81.40
21495;DHT22;10909;53.590;10.054;2023-04-15T06:27:53;12.20;81.50
21495;DHT22;10909;53.590;10.054;2023-04-15T06:30:19;12.20;81.70
21495;DHT22;10909;53.590;10.054;2023-04-15T06:32:45;12.20;81.70
21495;DHT22;10909;53.590;10.054;2023-04-15T06:35:11;12.20;81.70
21495;DHT22;10909;53.590;10.054;2023-04-15T06:37:37;12.20;81.70
21495;DHT22;10909;53.590;10.054;2023-04-15T06:40:03;12.30;81.80
21495;DHT22;10909;53.590;10.054;2023-04-15T06:42:30;12.30;81.70
21495;DHT22;10909;53.590;10.054;2023-04-15T06:44:56;12.30;81.90
21495;DHT22;10909;53.590;10.054;2023-04-15T06:47:21;12.30;81.90
21495;DHT22;10909;53.590;10.054;2023-04-15T06:49:47;12.30;82.00
21495;DHT22;10909;53.590;10.054;2023-04-15T06:52:13;12.30;82.10
21495;DHT22;10909;53.590;10.054;2023-04-15T06:54:39;12.30;82.10
21495;DHT22;10909;53.590;10.054;2023-04-15T06:57:06;12.30;82.10
21495;DHT22;10909;53.590;10.054;2023-04-15T06:59:33;12.30;82.20
21495;DHT22;10909;53.590;10.054;2023-04-15T07:01:59;12.40;82.20
21495;DHT22;10909;53.590;10.054;2023-04-15T07:04:25;12.40;82.10
21495;DHT22;10909;53.590;10.054;2023-04-15T07:06:50;12.40;82.00
21495;DHT22;10909;53.590;10.054;2023-04-15T07:09:16;12.30;81.90
21495;DHT22;10909;53.590;10.054;2023-04-15T07:11:41;12.30;82.00
21495;DHT22;10909;53.590;10.054;2023-04-15T07:14:07;12.30;82.00
21495;DHT22;10909;53.590;10.054;2023-04-15T07:16:33;12.30;82.10
21495;DHT22;10909;53.590;10.054;2023-04-15T07:18:58;12.30;82.20
21495;DHT22;10909;53.590;10.054;2023-04-15T07:21:24;12.30;82.20
21495;DHT22;10909;53.590;10.054;2023-04-15T07:23:50;12.30;82.30
21495;DHT22;10909;53.590;10.054;2023-04-15T07:26:16;12.40;82.40
21495;DHT22;10909;53.590;10.054;2023-04-15T07:28:42;12.40;82.50
21495;DHT22;10909;53.590;10.054;2023-04-15T07:31:08;12.40;82.50
21495;DHT22;10909;53.590;10.054;2023-04-15T07:33:33;12.40;82.40
21495;DHT22;10909;53.590;10.054;2023-04-15T07:35:59;12.40;82.30
21495;DHT22;10909;53.590;10.054;2023-04-15T07:38:25;12.40;82.30
21495;DHT22;10909;53.590;10.054;2023-04-15T07:40:51;12.50;82.30
21495;DHT22;10909;53.590;10.054;2023-04-15T07:43:17;12.50;82.30
21495;DHT22;10909;53.590;10.054;2023-04-15T07:45:43;12.50;82.30
21495;DHT22;10909;53.590;10.054;2023-04-15T07:48:08;12.50;82.30
21495;DHT22;10909;53.590;10.054;2023-04-15T07:50:34;12.50;82.30
21495;DHT22;10909;53.590;10.054;2023-04-15T07:53:00;12.50;82.30
21495;DHT22;10909;53.590;10.054;2023-04-15T07:55:27;12.60;82.50
21495;DHT22;10909;53.590;10.054;2023-04-15T07:57:54;12.60;82.50
21495;DHT22;10909;53.590;10.054;2023-04-15T08:00:21;12.60;82.60
21495;DHT22;10909;53.590;10.054;2023-04-15T08:02:46;12.70;82.50
21495;DHT22;10909;53.590;10.054;2023-04-15T08:05:13;12.70;82.40
21495;DHT22;10909;53.590;10.054;2023-04-15T08:07:40;12.70;82.50
21495;DHT22;10909;53.590;10.054;2023-04-15T08:10:07;12.70;82.60
21495;DHT22;10909;53.590;10.054;2023-04-15T08:12:33;12.80;82.70
21495;DHT22;10909;53.590;10.054;2023-04-15T08:14:58;12.80;82.50
21495;DHT22;10909;53.590;10.054;2023-04-15T08:17:24;12.80;82.50
21495;DHT22;10909;53.590;10.054;2023-04-15T08:19:50;12.90;82.60
21495;DHT22;10909;53.590;10.054;2023-04-15T08:22:16;12.90;82.50
21495;DHT22;10909;53.590;10.054;2023-04-15T08:24:42;12.90;82.40
21495;DHT22;10909;53.590;10.054;2023-04-15T08:27:07;12.90;82.50
21495;DHT22;10909;53.590;10.054;2023-04-15T08:29:33;12.90;82.40
21495;DHT22;10909;53.590;10.054;2023-04-15T08:32:00;12.90;82.30
21495;DHT22;10909;53.590;10.054;2023-04-15T08:34:28;13.00;82.40
21495;DHT22;10909;53.590;10.054;2023-04-15T08:36:54;13.00;82.40
21495;DHT22;10909;53.590;10.054;2023-04-15T08:39:20;13.00;82.40
21495;DHT22;10909;53.590;10.054;2023-04-15T08:42:10;13.10;82.50
21495;DHT22;10909;53.590;10.054;2023-04-15T08:44:37;13.10;82.60
21495;DHT22;10909;53.590;10.054;2023-04-15T08:47:07;13.10;82.80
21495;DHT22;10909;53.590;10.054;2023-04-15T08:49:38;13.10;83.00
21495;DHT22;10909;53.590;10.054;2023-04-15T08:52:06;13.20;83.00
21495;DHT22;10909;53.590;10.054;2023-04-15T08:54:34;13.30;83.00
21495;DHT22;10909;53.590;10.054;2023-04-15T08:57:02;13.30;83.00
21495;DHT22;10909;53.590;10.054;2023-04-15T08:59:30;13.40;83.00
21495;DHT22;10909;53.590;10.054;2023-04-15T09:01:58;13.40;82.80
21495;DHT22;10909;53.590;10.054;2023-04-15T09:04:26;13.50;82.80
21495;DHT22;10909;53.590;10.054;2023-04-15T09:06:52;13.50;82.60
21495;DHT22;10909;53.590;10.054;2023-04-15T09:09:17;13.50;82.20
21495;DHT22;10909;53.590;10.054;2023-04-15T09:11:43;13.50;82.20
21495;DHT22;10909;53.590;10.054;2023-04-15T09:14:09;13.50;82.30
21495;DHT22;10909;53.590;10.054;2023-04-15T09:16:57;13.50;82.30
21495;DHT22;10909;53.590;10.054;2023-04-15T09:19:24;13.60;82.30
21495;DHT22;10909;53.590;10.054;2023-04-15T09:21:54;13.60;82.50
21495;DHT22;10909;53.590;10.054;2023-04-15T09:24:21;13.60;82.50
21495;DHT22;10909;53.590;10.054;2023-04-15T09:26:47;13.60;82.70
21495;DHT22;10909;53.590;10.054;2023-04-15T09:29:16;13.70;82.70
21495;DHT22;10909;53.590;10.054;2023-04-15T09:31:43;13.80;83.00
21495;DHT22;10909;53.590;10.054;2023-04-15T09:34:08;13.80;83.30
21495;DHT22;10909;53.590;10.054;2023-04-15T09:37:00;13.90;83.30
21495;DHT22;10909;53.590;10.054;2023-04-15T09:39:44;14.10;83.30
21495;DHT22;10909;53.590;10.054;2023-04-15T09:42:11;14.10;83.00
21495;DHT22;10909;53.590;10.054;2023-04-15T09:44:37;14.20;83.20
21495;DHT22;10909;53.590;10.054;2023-04-15T09:47:02;14.30;83.20
21495;DHT22;10909;53.590;10.054;2023-04-15T09:49:28;14.40;83.50
21495;DHT22;10909;53.590;10.054;2023-04-15T09:51:59;14.50;83.40
21495;DHT22;10909;53.590;10.054;2023-04-15T09:54:35;14.60;83.20
21495;DHT22;10909;53.590;10.054;2023-04-15T09:57:08;14.70;83.10
21495;DHT22;10909;53.590;10.054;2023-04-15T09:59:37;14.80;83.20
21495;DHT22;10909;53.590;10.054;2023-04-15T10:02:04;14.90;82.90
21495;DHT22;10909;53.590;10.054;2023-04-15T10:04:34;15.00;82.70
21495;DHT22;10909;53.590;10.054;2023-04-15T10:07:00;15.00;82.50
21495;DHT22;10909;53.590;10.054;2023-04-15T10:09:28;15.10;82.10
21495;DHT22;10909;53.590;10.054;2023-04-15T10:11:54;15.10;82.10
21495;DHT22;10909;53.590;10.054;2023-04-15T10:14:20;15.20;82.30
21495;DHT22;10909;53.590;10.054;2023-04-15T10:16:46;15.20;82.80
21495;DHT22;10909;53.590;10.054;2023-04-15T10:19:14;15.30;82.60
21495;DHT22;10909;53.590;10.054;2023-04-15T10:21:40;15.40;82.50
21495;DHT22;10909;53.590;10.054;2023-04-15T10:24:07;15.50;82.40
21495;DHT22;10909;53.590;10.054;2023-04-15T10:26:33;15.70;82.30
21495;DHT22;10909;53.590;10.054;2023-04-15T10:29:00;15.70;82.40
21495;DHT22;10909;53.590;10.054;2023-04-15T10:31:28;15.80;82.20
21495;DHT22;10909;53.590;10.054;2023-04-15T10:33:54;15.90;80.70
21495;DHT22;10909;53.590;10.054;2023-04-15T10:36:20;16.00;80.70
21495;DHT22;10909;53.590;10.054;2023-04-15T10:38:46;16.00;80.60
21495;DHT22;10909;53.590;10.054;2023-04-15T10:41:23;16.00;80.80
21495;DHT22;10909;53.590;10.054;2023-04-15T10:46:37;16.20;81.10
21495;DHT22;10909;53.590;10.054;2023-04-15T10:49:15;16.20;79.60
21495;DHT22;10909;53.590;10.054;2023-04-15T10:51:51;16.30;80.20
21495;DHT22;10909;53.590;10.054;2023-04-15T10:57:16;16.50;80.50
21495;DHT22;10909;53.590;10.054;2023-04-15T10:59:58;16.70;78.80
21495;DHT22;10909;53.590;10.054;2023-04-15T11:05:14;16.90;78.40
21495;DHT22;10909;53.590;10.054;2023-04-15T11:12:43;17.10;77.90
21495;DHT22;10909;53.590;10.054;2023-04-15T11:17:58;17.20;75.40
21495;DHT22;10909;53.590;10.054;2023-04-15T11:20:24;17.20;76.50
21495;DHT22;10909;53.590;10.054;2023-04-15T11:22:52;17.20;75.70
21495;DHT22;10909;53.590;10.054;2023-04-15T11:25:25;17.10;75.40
21495;DHT22;10909;53.590;10.054;2023-04-15T11:27:52;17.10;74.30
21495;DHT22;10909;53.590;10.054;2023-04-15T11:32:53;17.00;74.90
21495;DHT22;10909;53.590;10.054;2023-04-15T11:35:19;17.00;74.10
21495;DHT22;10909;53.590;10.054;2023-04-15T11:37:47;17.00;74.90
21495;DHT22;10909;53.590;10.054;2023-04-15T11:40:14;17.00;74.60
21495;DHT22;10909;53.590;10.054;2023-04-15T11:42:43;16.90;73.90
21495;DHT22;10909;53.590;10.054;2023-04-15T11:45:10;16.90;74.40
21495;DHT22;10909;53.590;10.054;2023-04-15T11:47:40;16.90;74.50
21495;DHT22;10909;53.590;10.054;2023-04-15T11:50:20;16.90;74.80
21495;DHT22;10909;53.590;10.054;2023-04-15T11:52:58;16.90;73.50
21495;DHT22;10909;53.590;10.054;2023-04-15T11:55:24;17.00;74.40
21495;DHT22;10909;53.590;10.054;2023-04-15T11:58:07;17.00;75.00
21495;DHT22;10909;53.590;10.054;2023-04-15T12:00:33;17.10;73.70
21495;DHT22;10909;53.590;10.054;2023-04-15T12:08:57;17.30;72.70
21495;DHT22;10909;53.590;10.054;2023-04-15T12:13:55;17.30;72.60
21495;DHT22;10909;53.590;10.054;2023-04-15T12:16:21;17.30;72.90
21495;DHT22;10909;53.590;10.054;2023-04-15T12:18:52;17.30;73.10
21495;DHT22;10909;53.590;10.054;2023-04-15T12:21:21;17.30;71.20
21495;DHT22;10909;53.590;10.054;2023-04-15T12:23:52;17.30;72.10
21495;DHT22;10909;53.590;10.054;2023-04-15T12:26:25;17.20;71.50
21495;DHT22;10909;53.590;10.054;2023-04-15T12:28:55;17.20;71.10
21495;DHT22;10909;53.590;10.054;2023-04-15T12:31:25;17.10;71.40
21495;DHT22;10909;53.590;10.054;2023-04-15T12:33:50;17.10;71.90
21495;DHT22;10909;53.590;10.054;2023-04-15T12:36:16;17.10;72.30
21495;DHT22;10909;53.590;10.054;2023-04-15T12:38:42;17.10;72.30
21495;DHT22;10909;53.590;10.054;2023-04-15T12:41:07;17.10;72.40
21495;DHT22;10909;53.590;10.054;2023-04-15T12:43:33;17.10;72.00
21495;DHT22;10909;53.590;10.054;2023-04-15T12:45:58;17.10;71.40
21495;DHT22;10909;53.590;10.054;2023-04-15T12:48:24;17.10;70.80
21495;DHT22;10909;53.590;10.054;2023-04-15T12:50:50;17.10;71.50
21495;DHT22;10909;53.590;10.054;2023-04-15T12:53:16;17.10;71.40
21495;DHT22;10909;53.590;10.054;2023-04-15T12:55:41;17.10;71.10
21495;DHT22;10909;53.590;10.054;2023-04-15T12:58:07;17.10;71.80
21495;DHT22;10909;53.590;10.054;2023-04-15T13:00:33;17.10;71.90
21495;DHT22;10909;53.590;10.054;2023-04-15T13:02:59;17.10;71.50
21495;DHT22;10909;53.590;10.054;2023-04-15T13:05:25;17.10;71.00
21495;DHT22;10909;53.590;10.054;2023-04-15T13:07:51;17.20;70.60
21495;DHT22;10909;53.590;10.054;2023-04-15T13:10:16;17.20;71.10
21495;DHT22;10909;53.590;10.054;2023-04-15T13:12:42;17.20;69.50
21495;DHT22;10909;53.590;10.054;2023-04-15T13:15:08;17.20;69.60
21495;DHT22;10909;53.590;10.054;2023-04-15T13:17:35;17.30;70.40
21495;DHT22;10909;53.590;10.054;2023-04-15T13:20:01;17.30;70.00
21495;DHT22;10909;53.590;10.054;2023-04-15T13:22:27;17.30;68.30
21495;DHT22;10909;53.590;10.054;2023-04-15T13:24:52;17.30;69.30
21495;DHT22;10909;53.590;10.054;2023-04-15T13:27:18;17.40;69.70
21495;DHT22;10909;53.590;10.054;2023-04-15T13:29:44;17.40;69.80
21495;DHT22;10909;53.590;10.054;2023-04-15T13:32:09;17.50;70.20
21495;DHT22;10909;53.590;10.054;2023-04-15T13:34:35;17.60;70.30
21495;DHT22;10909;53.590;10.054;2023-04-15T13:37:08;17.70;69.30
21495;DHT22;10909;53.590;10.054;2023-04-15T13:39:34;17.70;69.40
21495;DHT22;10909;53.590;10.054;2023-04-15T13:41:59;17.80;69.70
21495;DHT22;10909;53.590;10.054;2023-04-15T13:44:25;17.90;68.40
21495;DHT22;10909;53.590;10.054;2023-04-15T13:46:51;17.90;69.20
21495;DHT22;10909;53.590;10.054;2023-04-15T13:49:17;18.00;69.40
21495;DHT22;10909;53.590;10.054;2023-04-15T13:51:43;18.20;69.10
21495;DHT22;10909;53.590;10.054;2023-04-15T13:54:08;18.30;67.70
21495;DHT22;10909;53.590;10.054;2023-04-15T13:56:34;18.40;67.50
21495;DHT22;10909;53.590;10.054;2023-04-15T13:59:01;18.60;69.10
21495;DHT22;10909;53.590;10.054;2023-04-15T14:01:28;18.90;70.70
21495;DHT22;10909;53.590;10.054;2023-04-15T14:03:54;19.30;72.20
21495;DHT22;10909;53.590;10.054;2023-04-15T14:06:21;19.80;74.40
21495;DHT22;10909;53.590;10.054;2023-04-15T14:08:51;20.40;73.00
21495;DHT22;10909;53.590;10.054;2023-04-15T14:11:17;21.00;72.50
21495;DHT22;10909;53.590;10.054;2023-04-15T14:13:43;21.60;70.60
21495;DHT22;10909;53.590;10.054;2023-04-15T14:16:09;22.10;66.00
21495;DHT22;10909;53.590;10.054;2023-04-15T14:18:34;22.60;66.10
21495;DHT22;10909;53.590;10.054;2023-04-15T14:21:03;23.00;65.20
21495;DHT22;10909;53.590;10.054;2023-04-15T14:23:29;23.40;62.70
21495;DHT22;10909;53.590;10.054;2023-04-15T14:25:55;23.70;61.20
21495;DHT22;10909;53.590;10.054;2023-04-15T14:28:21;23.90;61.60
21495;DHT22;10909;53.590;10.054;2023-04-15T14:30:48;24.10;59.70
21495;DHT22;10909;53.590;10.054;2023-04-15T14:33:14;24.30;57.10
21495;DHT22;10909;53.590;10.054;2023-04-15T14:35:40;24.50;57.80
21495;DHT22;10909;53.590;10.054;2023-04-15T14:38:06;24.60;55.90
21495;DHT22;10909;53.590;10.054;2023-04-15T14:40:35;24.70;56.30
21495;DHT22;10909;53.590;10.054;2023-04-15T14:43:02;24.70;55.00
21495;DHT22;10909;53.590;10.054;2023-04-15T14:45:29;24.90;55.50
21495;DHT22;10909;53.590;10.054;2023-04-15T14:47:55;24.90;54.90
21495;DHT22;10909;53.590;10.054;2023-04-15T14:50:21;24.90;53.50
21495;DHT22;10909;53.590;10.054;2023-04-15T14:52:47;24.90;53.40
21495;DHT22;10909;53.590;10.054;2023-04-15T14:55:13;24.70;51.40
21495;DHT22;10909;53.590;10.054;2023-04-15T14:57:40;24.30;49.60
21495;DHT22;10909;53.590;10.054;2023-04-15T15:00:07;23.90;50.70
21495;DHT22;10909;53.590;10.054;2023-04-15T15:02:34;23.60;51.60
21495;DHT22;10909;53.590;10.054;2023-04-15T15:05:02;23.50;52.10
21495;DHT22;10909;53.590;10.054;2023-04-15T15:07:28;23.40;52.50
21495;DHT22;10909;53.590;10.054;2023-04-15T15:09:54;23.20;52.30
21495;DHT22;10909;53.590;10.054;2023-04-15T15:12:20;23.20;53.00
21495;DHT22;10909;53.590;10.054;2023-04-15T15:14:48;23.10;54.00
21495;DHT22;10909;53.590;10.054;2023-04-15T15:17:14;23.10;53.00
21495;DHT22;10909;53.590;10.054;2023-04-15T15:19:40;23.00;51.90
21495;DHT22;10909;53.590;10.054;2023-04-15T15:22:06;22.80;51.60
21495;DHT22;10909;53.590;10.054;2023-04-15T15:24:31;22.60;52.60
21495;DHT22;10909;53.590;10.054;2023-04-15T15:26:57;22.50;52.20
21495;DHT22;10909;53.590;10.054;2023-04-15T15:29:23;22.30;52.80
21495;DHT22;10909;53.590;10.054;2023-04-15T15:31:49;22.10;52.40
21495;DHT22;10909;53.590;10.054;2023-04-15T15:34:15;21.90;53.50
21495;DHT22;10909;53.590;10.054;2023-04-15T15:36:41;21.70;53.20
21495;DHT22;10909;53.590;10.054;2023-04-15T15:39:07;21.50;52.90